Airport ID:KO69
Update Time (UTC):21/01/2022 15:24
Wind Speed (Knots):2
Wind Direction (Magnetic):340
Temperature (°C):4
Dew Point (°C):4
Humidity (%):99
Altimeter (inHg):30.23
Density Altitude (Feet):
Visibility:<.25
Clouds (Hundreds of feet):OVC002
Present Weather:FG
METAR:METAR KO69 211520Z AUTO 31007KT 1/4SM FG OVC002 04/04 A3022 RMK A01

The data displayed is for advisory purposes only and is not to be used for flight planning or operations.